createdAt,value
2017-05-09T00:00:32.277Z,80.26
2017-05-09T00:01:33.641Z,80.07
2017-05-09T00:02:35.000Z,80.16
2017-05-09T00:03:36.357Z,79.78
2017-05-09T00:04:37.722Z,79.88
2017-05-09T00:05:39.084Z,79.78
2017-05-09T00:06:40.442Z,79.40
2017-05-09T00:07:41.872Z,79.88
2017-05-09T00:08:43.236Z,80.07
2017-05-09T00:09:44.599Z,79.49
2017-05-09T00:10:45.960Z,79.88
2017-05-09T00:11:47.323Z,79.30
2017-05-09T00:12:48.681Z,79.11
2017-05-09T00:13:50.111Z,79.49
2017-05-09T00:14:51.475Z,79.97
2017-05-09T00:15:52.841Z,79.59
2017-05-09T00:16:54.190Z,79.30
2017-05-09T00:17:55.552Z,79.78
2017-05-09T00:18:56.914Z,80.26
2017-05-09T00:19:58.276Z,79.97
2017-05-09T00:20:59.637Z,80.44
2017-05-09T00:22:00.996Z,79.78
2017-05-09T00:23:02.368Z,79.88
2017-05-09T00:24:03.723Z,80.44
2017-05-09T00:25:05.079Z,80.26
2017-05-09T00:26:06.440Z,80.16
2017-05-09T00:27:07.798Z,80.35
2017-05-09T00:28:09.161Z,80.83
2017-05-09T00:29:10.523Z,80.73
2017-05-09T00:30:11.883Z,80.83
2017-05-09T00:31:13.242Z,81.12
2017-05-09T00:32:14.598Z,81.02
2017-05-09T00:33:16.825Z,81.02
2017-05-09T00:34:18.182Z,80.83
2017-05-09T00:35:19.550Z,81.12
2017-05-09T00:36:20.912Z,80.64
2017-05-09T00:37:22.271Z,80.92
2017-05-09T00:38:23.627Z,80.92
2017-05-09T00:39:24.995Z,80.73
2017-05-09T00:40:26.403Z,81.02
2017-05-09T00:41:27.735Z,81.30
2017-05-09T00:42:29.094Z,81.02
2017-05-09T00:43:30.461Z,81.12
2017-05-09T00:44:31.819Z,81.49
2017-05-09T00:45:33.183Z,81.49
2017-05-09T00:46:34.553Z,81.68
2017-05-09T00:47:35.924Z,81.49
2017-05-09T00:48:37.286Z,81.68
2017-05-09T00:49:38.649Z,81.78
2017-05-09T00:50:40.019Z,81.68
2017-05-09T00:51:41.389Z,81.68
2017-05-09T00:52:42.743Z,81.68
2017-05-09T00:53:44.112Z,81.49
2017-05-09T00:54:45.465Z,81.97
2017-05-09T00:55:46.833Z,81.21
2017-05-09T00:56:48.227Z,80.83
2017-05-09T00:57:49.629Z,81.21
2017-05-09T00:58:50.988Z,81.02
2017-05-09T00:59:52.345Z,80.83
2017-05-09T01:00:53.725Z,80.83
2017-05-09T01:01:55.157Z,80.79
2017-05-09T01:02:56.516Z,80.92
2017-05-09T01:03:57.881Z,80.64
2017-05-09T01:04:59.250Z,80.60
2017-05-09T01:06:00.610Z,80.69
2017-05-09T01:07:01.970Z,81.02
2017-05-09T01:08:03.333Z,81.21
2017-05-09T01:09:04.755Z,80.69
2017-05-09T01:10:06.121Z,80.92
2017-05-09T01:11:07.487Z,81.65
2017-05-09T01:12:08.862Z,81.40
2017-05-09T01:13:10.220Z,80.73
2017-05-09T01:14:11.588Z,81.02
2017-05-09T01:15:12.946Z,81.68
2017-05-09T01:16:14.304Z,81.17
2017-05-09T01:17:15.674Z,80.88
2017-05-09T01:18:17.026Z,81.17
2017-05-09T01:19:18.384Z,81.07
2017-05-09T01:20:19.760Z,81.07
2017-05-09T01:21:21.126Z,81.26
2017-05-09T01:22:22.519Z,80.98
2017-05-09T01:23:23.880Z,80.60
2017-05-09T01:24:25.247Z,81.65
2017-05-09T01:25:26.601Z,81.84
2017-05-09T01:26:27.964Z,82.12
2017-05-09T01:27:29.327Z,81.93
2017-05-09T01:28:30.689Z,82.41
2017-05-09T01:29:32.055Z,82.03
2017-05-09T01:30:33.414Z,82.50
2017-05-09T01:31:34.776Z,82.60
2017-05-09T01:32:36.137Z,82.69
2017-05-09T01:33:37.498Z,82.79
2017-05-09T01:34:38.853Z,82.12
2017-05-09T01:35:40.233Z,81.84
2017-05-09T01:36:41.589Z,82.69
2017-05-09T01:37:42.950Z,82.60
2017-05-09T01:38:44.309Z,82.60
2017-05-09T01:39:45.670Z,82.98
2017-05-09T01:40:47.043Z,82.69
2017-05-09T01:41:48.426Z,82.60
2017-05-09T01:42:49.792Z,83.07
2017-05-09T01:43:51.152Z,83.36
2017-05-09T01:44:52.511Z,83.07
2017-05-09T01:45:53.863Z,82.89
2017-05-09T01:46:55.231Z,82.79
2017-05-09T01:47:56.592Z,82.41
2017-05-09T01:48:57.956Z,82.60
2017-05-09T01:49:59.322Z,82.79
2017-05-09T01:51:00.718Z,83.36
2017-05-09T01:52:02.079Z,83.17
2017-05-09T01:53:03.447Z,82.98
2017-05-09T01:54:04.809Z,82.89
2017-05-09T01:55:06.164Z,83.17
2017-05-09T01:56:07.532Z,83.07
2017-05-09T01:57:08.884Z,83.07
2017-05-09T01:58:10.247Z,82.98
2017-05-09T01:59:11.605Z,83.36
2017-05-09T02:00:13.596Z,82.69
2017-05-09T02:01:14.956Z,82.50
2017-05-09T02:02:16.314Z,82.31
2017-05-09T02:03:17.669Z,82.50
2017-05-09T02:04:19.033Z,82.31
2017-05-09T02:05:20.383Z,82.69
2017-05-09T02:06:21.748Z,82.21
2017-05-09T02:07:23.101Z,82.41
2017-05-09T02:08:24.467Z,82.12
2017-05-09T02:09:25.855Z,82.31
2017-05-09T02:10:27.226Z,82.21
2017-05-09T02:11:28.584Z,82.21
2017-05-09T02:12:29.969Z,81.74
2017-05-09T02:13:31.310Z,81.55
2017-05-09T02:14:32.678Z,81.55
2017-05-09T02:15:34.039Z,82.03
2017-05-09T02:16:35.400Z,81.65
2017-05-09T02:17:36.758Z,82.12
2017-05-09T02:18:38.145Z,81.93
2017-05-09T02:19:40.490Z,82.12
2017-05-09T02:20:41.859Z,82.03
2017-05-09T02:21:43.214Z,81.84
2017-05-09T02:22:44.577Z,81.36
2017-05-09T02:23:45.938Z,81.46
2017-05-09T02:24:47.305Z,82.03
2017-05-09T02:25:48.662Z,81.74
2017-05-09T02:26:50.025Z,82.21
2017-05-09T02:27:51.391Z,82.60
2017-05-09T02:28:52.756Z,82.89
2017-05-09T02:29:54.110Z,82.12
2017-05-09T02:30:55.472Z,81.65
2017-05-09T02:31:56.846Z,81.55
2017-05-09T02:32:58.215Z,82.31
2017-05-09T02:33:59.572Z,82.31
2017-05-09T02:35:00.955Z,81.55
2017-05-09T02:36:02.295Z,81.55
2017-05-09T02:37:03.659Z,81.65
2017-05-09T02:38:05.020Z,81.93
2017-05-09T02:39:06.380Z,82.41
2017-05-09T02:40:07.740Z,82.12
2017-05-09T02:41:09.102Z,82.69
2017-05-09T02:42:10.459Z,82.79
2017-05-09T02:43:11.820Z,82.79
2017-05-09T02:44:13.208Z,82.69
2017-05-09T02:45:14.571Z,82.60
2017-05-09T02:46:15.934Z,82.69
2017-05-09T02:47:17.297Z,82.79
2017-05-09T02:48:18.660Z,82.60
2017-05-09T02:49:20.027Z,82.79
2017-05-09T02:50:21.383Z,82.69
2017-05-09T02:51:22.751Z,82.69
2017-05-09T02:52:24.108Z,83.07
2017-05-09T02:53:25.467Z,82.98
2017-05-09T02:54:26.841Z,82.98
2017-05-09T02:55:28.194Z,82.79
2017-05-09T02:56:29.574Z,83.07
2017-05-09T02:57:30.928Z,83.26
2017-05-09T02:58:32.311Z,82.98
2017-05-09T02:59:33.682Z,83.55
2017-05-09T03:00:35.049Z,82.69
2017-05-09T03:01:36.423Z,82.79
2017-05-09T03:02:37.781Z,83.26
2017-05-09T03:03:39.139Z,82.60
2017-05-09T03:04:40.500Z,82.69
2017-05-09T03:05:41.867Z,82.60
2017-05-09T03:06:43.220Z,82.98
2017-05-09T03:07:44.584Z,83.17
2017-05-09T03:08:45.948Z,82.98
2017-05-09T03:09:47.347Z,83.17
2017-05-09T03:10:48.707Z,82.50
2017-05-09T03:11:50.075Z,82.79
2017-05-09T03:12:51.443Z,82.50
2017-05-09T03:13:52.798Z,82.69
2017-05-09T03:14:54.156Z,82.50
2017-05-09T03:15:55.522Z,82.21
2017-05-09T03:16:56.892Z,82.50
2017-05-09T03:17:58.252Z,82.12
2017-05-09T03:18:59.623Z,81.55
2017-05-09T03:20:00.989Z,81.26
2017-05-09T03:21:02.347Z,81.36
2017-05-09T03:22:03.710Z,81.46
2017-05-09T03:23:05.077Z,81.84
2017-05-09T03:24:06.438Z,81.17
2017-05-09T03:25:07.795Z,81.55
2017-05-09T03:26:09.159Z,81.46
2017-05-09T03:27:10.639Z,81.46
2017-05-09T03:28:12.000Z,81.26
2017-05-09T03:29:13.363Z,81.46
2017-05-09T03:30:14.730Z,81.46
2017-05-09T03:31:16.085Z,81.36
2017-05-09T03:32:17.450Z,81.17
2017-05-09T03:33:18.810Z,81.17
2017-05-09T03:34:20.174Z,81.46
2017-05-09T03:35:21.549Z,81.65
2017-05-09T03:36:22.915Z,81.36
2017-05-09T03:37:24.316Z,81.65
2017-05-09T03:38:25.673Z,81.46
2017-05-09T03:39:27.037Z,81.17
2017-05-09T03:40:28.404Z,81.17
2017-05-09T03:41:29.766Z,81.55
2017-05-09T03:42:31.171Z,81.17
2017-05-09T03:43:32.533Z,81.55
2017-05-09T03:44:33.901Z,81.55
2017-05-09T03:45:35.257Z,81.26
2017-05-09T03:46:36.670Z,81.17
2017-05-09T03:47:38.031Z,81.93
2017-05-09T03:48:39.397Z,81.65
2017-05-09T03:49:40.763Z,81.17
2017-05-09T03:50:42.119Z,81.65
2017-05-09T03:51:43.483Z,81.36
2017-05-09T03:52:44.849Z,81.36
2017-05-09T03:53:46.216Z,81.55
2017-05-09T03:54:47.576Z,81.65
2017-05-09T03:55:48.947Z,81.74
2017-05-09T03:56:50.311Z,81.65
2017-05-09T03:57:51.669Z,81.55
2017-05-09T03:58:53.033Z,81.55
2017-05-09T03:59:54.402Z,81.36
2017-05-09T04:00:55.760Z,81.68
2017-05-09T04:01:57.128Z,81.07
2017-05-09T04:02:58.499Z,81.65
2017-05-09T04:03:59.878Z,81.46
2017-05-09T04:05:01.236Z,81.65
2017-05-09T04:06:02.610Z,81.36
2017-05-09T04:07:03.984Z,81.93
2017-05-09T04:08:05.346Z,81.93
2017-05-09T04:09:06.706Z,81.84
2017-05-09T04:10:08.080Z,81.55
2017-05-09T04:11:09.637Z,81.65
2017-05-09T04:12:10.996Z,81.55
2017-05-09T04:13:12.361Z,82.69
2017-05-09T04:14:13.728Z,82.50
2017-05-09T04:15:15.093Z,82.69
2017-05-09T04:16:16.523Z,82.89
2017-05-09T04:17:17.886Z,83.84
2017-05-09T04:18:19.250Z,84.60
2017-05-09T04:19:20.619Z,85.80
2017-05-09T04:20:21.988Z,86.46
2017-05-09T04:21:23.357Z,87.23
2017-05-09T04:22:24.714Z,87.89
2017-05-09T04:23:26.105Z,87.79
2017-05-09T04:24:27.465Z,88.79
2017-05-09T04:25:28.824Z,87.84
2017-05-09T04:26:30.187Z,88.27
2017-05-09T04:27:31.543Z,88.84
2017-05-09T04:28:32.920Z,88.60
2017-05-09T04:29:35.179Z,89.37
2017-05-09T04:30:36.543Z,89.56
2017-05-09T04:31:37.920Z,91.13
2017-05-09T04:32:39.285Z,90.32
2017-05-09T04:33:40.643Z,89.37
2017-05-09T04:34:42.016Z,89.61
2017-05-09T04:35:43.375Z,88.99
2017-05-09T04:36:44.738Z,89.08
2017-05-09T04:37:46.100Z,89.37
2017-05-09T04:38:47.467Z,88.79
2017-05-09T04:39:48.834Z,88.79
2017-05-09T04:40:50.195Z,88.42
2017-05-09T04:41:51.551Z,88.70
2017-05-09T04:42:52.935Z,89.18
2017-05-09T04:43:54.391Z,88.32
2017-05-09T04:44:55.765Z,88.23
2017-05-09T04:45:57.122Z,88.13
2017-05-09T04:46:58.486Z,88.23
2017-05-09T04:47:59.843Z,88.94
2017-05-09T04:49:01.211Z,89.18
2017-05-09T04:50:02.572Z,88.13
2017-05-09T04:51:04.001Z,88.32
2017-05-09T04:52:05.373Z,88.99
2017-05-09T04:53:06.741Z,88.89
2017-05-09T04:54:08.094Z,89.04
2017-05-09T04:55:09.450Z,89.08
2017-05-09T04:56:10.816Z,88.66
2017-05-09T04:57:12.189Z,89.37
2017-05-09T04:58:13.555Z,89.42
2017-05-09T04:59:14.914Z,89.32
2017-05-09T05:00:16.284Z,89.89
2017-05-09T05:01:17.647Z,90.28
2017-05-09T05:02:19.011Z,90.28
2017-05-09T05:03:20.367Z,90.28
2017-05-09T05:04:21.829Z,90.18
2017-05-09T05:05:23.196Z,90.66
2017-05-09T05:06:24.557Z,90.18
2017-05-09T05:07:25.925Z,90.37
2017-05-09T05:08:27.287Z,90.56
2017-05-09T05:09:28.650Z,90.84
2017-05-09T05:10:30.025Z,90.18
2017-05-09T05:11:31.391Z,90.08
2017-05-09T05:12:32.762Z,90.56
2017-05-09T05:13:34.130Z,90.37
2017-05-09T05:14:35.489Z,90.37
2017-05-09T05:15:36.849Z,89.61
2017-05-09T05:16:38.214Z,89.70
2017-05-09T05:17:39.578Z,90.37
2017-05-09T05:18:40.935Z,90.75
2017-05-09T05:19:42.301Z,89.70
2017-05-09T05:20:43.666Z,89.94
2017-05-09T05:21:45.060Z,89.61
2017-05-09T05:22:46.423Z,89.66
2017-05-09T05:23:47.787Z,90.04
2017-05-09T05:24:49.146Z,90.28
2017-05-09T05:25:51.249Z,89.85
2017-05-09T05:26:52.612Z,90.18
2017-05-09T05:27:53.990Z,89.66
2017-05-09T05:28:55.355Z,89.99
2017-05-09T05:29:56.716Z,89.70
2017-05-09T05:30:58.083Z,89.28
2017-05-09T05:31:59.442Z,89.28
2017-05-09T05:33:00.809Z,89.28
2017-05-09T05:34:02.197Z,89.66
2017-05-09T05:35:03.554Z,89.56
2017-05-09T05:36:04.935Z,89.51
2017-05-09T05:37:06.299Z,89.51
2017-05-09T05:38:07.668Z,88.90
2017-05-09T05:39:09.032Z,89.28
2017-05-09T05:40:10.400Z,89.66
2017-05-09T05:41:11.760Z,90.33
2017-05-09T05:42:13.128Z,89.75
2017-05-09T05:43:14.494Z,89.37
2017-05-09T05:44:15.853Z,89.56
2017-05-09T05:45:17.287Z,89.56
2017-05-09T05:46:18.651Z,89.70
2017-05-09T05:47:20.015Z,88.80
2017-05-09T05:48:21.391Z,88.28
2017-05-09T05:49:22.747Z,88.04
2017-05-09T05:50:24.110Z,88.37
2017-05-09T05:51:25.473Z,88.61
2017-05-09T05:52:26.854Z,88.52
2017-05-09T05:53:28.220Z,88.33
2017-05-09T05:54:29.586Z,88.23
2017-05-09T05:55:30.950Z,87.99
2017-05-09T05:56:32.314Z,87.95
2017-05-09T05:57:33.683Z,87.76
2017-05-09T05:58:35.041Z,87.57
2017-05-09T05:59:36.406Z,88.56
2017-05-09T06:00:37.811Z,88.37
2017-05-09T06:01:39.180Z,88.28
2017-05-09T06:02:40.550Z,88.09
2017-05-09T06:03:41.914Z,87.61
2017-05-09T06:04:43.292Z,87.80
2017-05-09T06:05:44.648Z,86.90
2017-05-09T06:06:45.975Z,87.09
2017-05-09T06:07:47.343Z,86.94
2017-05-09T06:08:48.747Z,86.90
2017-05-09T06:09:50.117Z,86.47
2017-05-09T06:10:51.483Z,86.80
2017-05-09T06:11:52.858Z,87.04
2017-05-09T06:12:54.232Z,87.32
2017-05-09T06:13:55.594Z,87.38
2017-05-09T06:14:56.962Z,87.90
2017-05-09T06:15:58.321Z,87.71
2017-05-09T06:16:59.748Z,87.28
2017-05-09T06:18:01.137Z,86.99
2017-05-09T06:19:02.540Z,86.61
2017-05-09T06:20:03.907Z,86.66
2017-05-09T06:21:05.260Z,86.52
2017-05-09T06:22:06.623Z,85.66
2017-05-09T06:23:07.995Z,84.05
2017-05-09T06:24:10.115Z,84.24
2017-05-09T06:25:11.505Z,83.67
2017-05-09T06:26:12.976Z,82.81
2017-05-09T06:27:14.352Z,82.15
2017-05-09T06:28:15.724Z,82.05
2017-05-09T06:29:17.081Z,82.15
2017-05-09T06:30:18.444Z,82.05
2017-05-09T06:31:19.805Z,81.52
2017-05-09T06:32:21.172Z,81.24
2017-05-09T06:33:22.543Z,81.43
2017-05-09T06:34:23.904Z,81.24
2017-05-09T06:35:25.265Z,81.01
2017-05-09T06:36:26.635Z,80.82
2017-05-09T06:37:27.992Z,80.15
2017-05-09T06:38:29.357Z,80.63
2017-05-09T06:39:30.719Z,81.48
2017-05-09T06:40:32.142Z,80.91
2017-05-09T06:41:33.504Z,81.38
2017-05-09T06:42:34.862Z,81.48
2017-05-09T06:43:36.226Z,80.95
2017-05-09T06:44:37.584Z,80.63
2017-05-09T06:45:38.946Z,80.24
2017-05-09T06:46:41.221Z,80.15
2017-05-09T06:47:42.580Z,79.77
2017-05-09T06:48:43.939Z,79.96
2017-05-09T06:49:45.308Z,80.15
2017-05-09T06:50:46.726Z,80.15
2017-05-09T06:51:48.090Z,80.15
2017-05-09T06:52:49.459Z,79.68
2017-05-09T06:53:51.448Z,79.86
2017-05-09T06:54:52.806Z,79.30
2017-05-09T06:55:54.173Z,79.77
2017-05-09T06:56:55.530Z,79.49
2017-05-09T06:57:56.909Z,79.86
2017-05-09T06:58:58.941Z,79.14
2017-05-09T07:00:00.354Z,79.58
2017-05-09T07:01:01.711Z,80.24
2017-05-09T07:02:03.097Z,79.77
2017-05-09T07:03:04.450Z,80.24
2017-05-09T07:04:05.813Z,80.44
2017-05-09T07:05:07.183Z,80.15
2017-05-09T07:06:08.543Z,80.63
2017-05-09T07:07:09.910Z,80.63
2017-05-09T07:08:11.294Z,80.63
2017-05-09T07:09:12.668Z,80.63
2017-05-09T07:10:14.027Z,80.34
2017-05-09T07:11:15.399Z,80.05
2017-05-09T07:12:17.485Z,79.01
2017-05-09T07:13:18.849Z,79.39
2017-05-09T07:14:20.227Z,79.30
2017-05-09T07:15:22.424Z,79.58
2017-05-09T07:16:23.785Z,78.63
2017-05-09T07:17:25.147Z,77.77
2017-05-09T07:18:26.511Z,77.58
2017-05-09T07:19:27.868Z,77.87
2017-05-09T07:20:29.249Z,77.49
2017-05-09T07:21:30.606Z,78.34
2017-05-09T07:22:31.968Z,78.63
2017-05-09T07:23:33.351Z,78.63
2017-05-09T07:24:34.705Z,78.72
2017-05-09T07:25:36.069Z,78.34
2017-05-09T07:26:37.429Z,79.86
2017-05-09T07:27:38.794Z,80.24
2017-05-09T07:28:40.158Z,80.44
2017-05-09T07:29:41.524Z,81.10
2017-05-09T07:30:42.893Z,81.01
2017-05-09T07:31:44.261Z,81.58
2017-05-09T07:32:45.632Z,81.86
2017-05-09T07:33:47.000Z,82.05
2017-05-09T07:34:48.388Z,81.86
2017-05-09T07:35:49.762Z,82.05
2017-05-09T07:36:51.139Z,82.34
2017-05-09T07:37:52.504Z,83.00
2017-05-09T07:38:53.865Z,82.91
2017-05-09T07:39:55.229Z,82.53
2017-05-09T07:40:56.603Z,82.71
2017-05-09T07:41:57.967Z,83.19
2017-05-09T07:42:59.337Z,82.91
2017-05-09T07:44:00.701Z,83.10
2017-05-09T07:45:02.068Z,82.91
2017-05-09T07:46:03.422Z,82.81
2017-05-09T07:47:04.788Z,82.62
2017-05-09T07:48:06.152Z,82.81
2017-05-09T07:49:07.522Z,82.05
2017-05-09T07:50:08.883Z,82.34
2017-05-09T07:51:11.010Z,81.48
2017-05-09T07:52:12.379Z,81.10
2017-05-09T07:53:13.753Z,81.77
2017-05-09T07:54:15.116Z,81.48
2017-05-09T07:55:16.484Z,81.48
2017-05-09T07:56:17.841Z,81.48
2017-05-09T07:57:19.218Z,82.34
2017-05-09T07:58:20.578Z,82.34
2017-05-09T07:59:21.951Z,81.96
2017-05-09T08:00:23.994Z,82.34
2017-05-09T08:01:25.905Z,82.53
2017-05-09T08:02:27.275Z,82.81
2017-05-09T08:03:28.634Z,82.62
2017-05-09T08:04:30.502Z,82.34
2017-05-09T08:05:31.867Z,81.67
2017-05-09T08:06:33.245Z,81.01
2017-05-09T08:07:34.605Z,80.44
2017-05-09T08:08:35.976Z,80.72
2017-05-09T08:09:37.358Z,81.10
2017-05-09T08:10:38.727Z,80.91
2017-05-09T08:11:40.104Z,80.44
2017-05-09T08:12:41.537Z,81.01
2017-05-09T08:13:42.902Z,81.10
2017-05-09T08:14:44.262Z,81.10
2017-05-09T08:15:45.630Z,82.19
2017-05-09T08:16:46.997Z,81.90
2017-05-09T08:17:49.068Z,80.91
2017-05-09T08:18:50.427Z,81.86
2017-05-09T08:19:51.792Z,81.77
2017-05-09T08:20:53.154Z,80.82
2017-05-09T08:21:54.511Z,80.91
2017-05-09T08:22:55.879Z,81.48
2017-05-09T08:23:57.240Z,80.24
2017-05-09T08:24:58.601Z,80.72
2017-05-09T08:25:59.973Z,81.01
2017-05-09T08:27:01.347Z,81.48
2017-05-09T08:28:03.578Z,82.05
2017-05-09T08:29:04.940Z,81.58
2017-05-09T08:30:06.305Z,80.72
2017-05-09T08:31:07.669Z,80.82
2017-05-09T08:32:09.029Z,80.91
2017-05-09T08:33:10.392Z,80.53
2017-05-09T08:34:11.762Z,81.29
2017-05-09T08:35:13.131Z,80.82
2017-05-09T08:36:14.495Z,81.38
2017-05-09T08:37:15.855Z,80.63
2017-05-09T08:38:17.222Z,80.44
2017-05-09T08:39:18.582Z,80.44
2017-05-09T08:40:19.952Z,81.01
2017-05-09T08:41:21.320Z,81.01
2017-05-09T08:42:23.551Z,80.05
2017-05-09T08:43:24.920Z,80.24
2017-05-09T08:44:26.280Z,80.24
2017-05-09T08:45:27.636Z,80.05
2017-05-09T08:46:29.008Z,80.24
2017-05-09T08:47:30.380Z,80.05
2017-05-09T08:48:31.754Z,79.77
2017-05-09T08:49:33.129Z,79.39
2017-05-09T08:50:34.496Z,78.63
2017-05-09T08:51:35.859Z,78.44
2017-05-09T08:52:37.255Z,78.72
2017-05-09T08:53:38.622Z,78.53
2017-05-09T08:54:39.982Z,78.25
2017-05-09T08:55:41.356Z,77.77
2017-05-09T08:56:42.723Z,77.30
2017-05-09T08:57:44.092Z,77.30
2017-05-09T08:58:45.455Z,77.77
2017-05-09T08:59:46.903Z,77.87
2017-05-09T09:00:48.271Z,77.49
2017-05-09T09:01:49.644Z,77.97
2017-05-09T09:02:51.008Z,78.06
2017-05-09T09:03:52.377Z,78.63
2017-05-09T09:04:53.744Z,79.20
2017-05-09T09:05:55.107Z,78.63
2017-05-09T09:06:56.473Z,77.68
2017-05-09T09:07:57.837Z,77.39
2017-05-09T09:08:59.202Z,77.58
2017-05-09T09:10:00.569Z,77.77
2017-05-09T09:11:01.934Z,77.68
2017-05-09T09:12:03.303Z,77.87
2017-05-09T09:13:04.662Z,78.44
2017-05-09T09:14:06.029Z,78.53
2017-05-09T09:15:07.397Z,78.72
2017-05-09T09:16:08.762Z,78.72
2017-05-09T09:17:10.125Z,78.53
2017-05-09T09:18:11.497Z,78.63
2017-05-09T09:19:12.869Z,78.44
2017-05-09T09:20:14.230Z,78.16
2017-05-09T09:21:15.594Z,78.63
2017-05-09T09:22:17.823Z,78.06
2017-05-09T09:23:19.193Z,78.72
2017-05-09T09:24:21.491Z,78.06
2017-05-09T09:25:22.867Z,78.06
2017-05-09T09:26:24.246Z,77.49
2017-05-09T09:27:25.602Z,77.68
2017-05-09T09:28:26.984Z,77.17
2017-05-09T09:29:28.343Z,77.45
2017-05-09T09:30:29.718Z,77.39
2017-05-09T09:31:31.092Z,77.26
2017-05-09T09:32:32.452Z,77.20
2017-05-09T09:33:33.857Z,76.25
2017-05-09T09:34:35.227Z,77.01
2017-05-09T09:35:36.610Z,77.77
2017-05-09T09:36:37.969Z,77.30
2017-05-09T09:37:39.330Z,77.01
2017-05-09T09:38:40.711Z,76.92
2017-05-09T09:39:42.092Z,77.20
2017-05-09T09:40:43.492Z,76.63
2017-05-09T09:41:44.842Z,77.39
2017-05-09T09:42:46.215Z,77.30
2017-05-09T09:43:47.614Z,77.30
2017-05-09T09:44:48.979Z,76.35
2017-05-09T09:45:50.349Z,76.44
2017-05-09T09:46:52.549Z,77.20
2017-05-09T09:47:53.902Z,77.01
2017-05-09T09:48:55.271Z,76.92
2017-05-09T09:49:57.483Z,77.20
2017-05-09T09:50:58.847Z,77.49
2017-05-09T09:52:00.206Z,77.30
2017-05-09T09:53:01.572Z,77.20
2017-05-09T09:54:02.943Z,77.39
2017-05-09T09:55:04.378Z,77.68
2017-05-09T09:56:05.783Z,78.16
2017-05-09T09:57:07.152Z,77.58
2017-05-09T09:58:08.515Z,77.30
2017-05-09T09:59:09.885Z,76.82
2017-05-09T10:00:12.008Z,77.20
2017-05-09T10:01:12.559Z,77.68
2017-05-09T10:02:13.930Z,78.16
2017-05-09T10:03:15.292Z,78.16
2017-05-09T10:04:16.692Z,77.68
2017-05-09T10:05:18.079Z,77.20
2017-05-09T10:06:19.439Z,77.01
2017-05-09T10:07:20.920Z,77.11
2017-05-09T10:08:22.284Z,76.54
2017-05-09T10:09:23.644Z,76.25
2017-05-09T10:10:25.005Z,76.73
2017-05-09T10:11:26.376Z,76.73
2017-05-09T10:12:27.743Z,76.63
2017-05-09T10:13:29.107Z,76.54
2017-05-09T10:14:30.478Z,76.35
2017-05-09T10:15:31.842Z,75.78
2017-05-09T10:16:33.205Z,75.30
2017-05-09T10:17:34.578Z,75.59
2017-05-09T10:18:35.943Z,75.49
2017-05-09T10:19:37.303Z,75.68
2017-05-09T10:20:38.669Z,76.35
2017-05-09T10:21:40.037Z,75.40
2017-05-09T10:22:41.401Z,75.59
2017-05-09T10:23:43.692Z,75.49
2017-05-09T10:24:45.061Z,75.21
2017-05-09T10:25:46.425Z,76.06
2017-05-09T10:26:48.507Z,75.96
2017-05-09T10:27:49.835Z,75.21
2017-05-09T10:28:51.201Z,74.35
2017-05-09T10:29:52.559Z,75.21
2017-05-09T10:30:53.926Z,74.92
2017-05-09T10:31:55.286Z,74.16
2017-05-09T10:32:56.655Z,74.44
2017-05-09T10:33:57.974Z,74.35
2017-05-09T10:34:59.336Z,74.44
2017-05-09T10:36:00.706Z,74.44
2017-05-09T10:37:02.083Z,73.69
2017-05-09T10:38:03.477Z,74.54
2017-05-09T10:39:04.840Z,74.35
2017-05-09T10:40:06.203Z,74.54
2017-05-09T10:41:07.568Z,73.49
2017-05-09T10:42:08.931Z,73.69
2017-05-09T10:43:10.969Z,74.26
2017-05-09T10:44:12.339Z,73.40
2017-05-09T10:45:13.703Z,73.21
2017-05-09T10:46:15.973Z,73.21
2017-05-09T10:47:17.338Z,73.02
2017-05-09T10:48:18.708Z,72.35
2017-05-09T10:49:20.074Z,72.83
2017-05-09T10:50:21.435Z,72.74
2017-05-09T10:51:22.804Z,72.83
2017-05-09T10:52:24.224Z,72.74
2017-05-09T10:53:25.581Z,71.88
2017-05-09T10:54:26.943Z,71.91
2017-05-09T10:55:28.312Z,71.34
2017-05-09T10:56:29.670Z,71.72
2017-05-09T10:57:31.052Z,71.82
2017-05-09T10:58:32.415Z,71.72
2017-05-09T10:59:33.806Z,71.72
2017-05-09T11:00:35.139Z,72.01
2017-05-09T11:01:36.504Z,72.11
2017-05-09T11:02:37.865Z,71.91
2017-05-09T11:03:39.229Z,71.91
2017-05-09T11:04:40.595Z,71.82
2017-05-09T11:05:41.967Z,71.82
2017-05-09T11:06:43.326Z,71.63
2017-05-09T11:07:44.692Z,71.53
2017-05-09T11:08:46.057Z,71.15
2017-05-09T11:09:47.421Z,71.06
2017-05-09T11:10:49.349Z,71.34
2017-05-09T11:11:50.720Z,71.69
2017-05-09T11:12:52.117Z,71.34
2017-05-09T11:13:53.473Z,71.91
2017-05-09T11:14:54.837Z,71.25
2017-05-09T11:15:56.203Z,70.87
2017-05-09T11:16:57.618Z,71.63
2017-05-09T11:17:58.939Z,71.06
2017-05-09T11:19:00.302Z,71.06
2017-05-09T11:20:01.672Z,70.39
2017-05-09T11:21:03.072Z,69.63
2017-05-09T11:22:04.436Z,70.30
2017-05-09T11:23:05.798Z,70.10
2017-05-09T11:24:07.168Z,69.63
2017-05-09T11:25:08.630Z,69.15
2017-05-09T11:26:09.997Z,68.87
2017-05-09T11:27:11.364Z,67.76
2017-05-09T11:28:12.731Z,67.86
2017-05-09T11:29:14.085Z,67.67
2017-05-09T11:30:15.454Z,67.47
2017-05-09T11:31:16.823Z,67.47
2017-05-09T11:32:18.197Z,67.67
2017-05-09T11:33:19.561Z,66.46
2017-05-09T11:34:20.932Z,66.37
2017-05-09T11:35:22.431Z,66.75
2017-05-09T11:36:23.800Z,66.56
2017-05-09T11:37:25.163Z,66.62
2017-05-09T11:38:26.561Z,66.27
2017-05-09T11:39:27.921Z,66.43
2017-05-09T11:40:29.293Z,66.53
2017-05-09T11:41:30.667Z,66.24
2017-05-09T11:42:32.027Z,66.72
2017-05-09T11:43:33.386Z,67.29
2017-05-09T11:44:34.745Z,67.47
2017-05-09T11:45:36.126Z,67.47
2017-05-09T11:46:37.490Z,67.10
2017-05-09T11:47:38.870Z,67.38
2017-05-09T11:48:40.237Z,67.57
2017-05-09T11:49:41.726Z,67.00
2017-05-09T11:50:43.099Z,66.59
2017-05-09T11:51:44.489Z,66.43
2017-05-09T11:52:45.858Z,67.29
2017-05-09T11:53:47.225Z,66.62
2017-05-09T11:54:48.593Z,66.59
2017-05-09T11:55:49.959Z,66.30
2017-05-09T11:56:51.320Z,66.68
2017-05-09T11:57:52.682Z,66.59
2017-05-09T11:58:54.040Z,66.97
2017-05-09T11:59:55.411Z,67.16
2017-05-09T12:00:56.773Z,66.59
2017-05-09T12:01:58.137Z,66.78
2017-05-09T12:02:59.507Z,67.54
2017-05-09T12:04:00.910Z,66.30
2017-05-09T12:05:02.275Z,66.68
2017-05-09T12:06:03.634Z,66.11
2017-05-09T12:07:05.001Z,64.11
2017-05-09T12:08:06.383Z,63.45
2017-05-09T12:09:07.799Z,63.73
2017-05-09T12:10:09.162Z,63.54
2017-05-09T12:11:10.522Z,62.40
2017-05-09T12:12:12.699Z,61.55
2017-05-09T12:13:14.062Z,61.45
2017-05-09T12:14:15.454Z,60.88
2017-05-09T12:15:16.815Z,60.02
2017-05-09T12:16:18.193Z,59.01
2017-05-09T12:17:19.563Z,58.62
2017-05-09T12:18:20.927Z,58.06
2017-05-09T12:19:22.299Z,58.06
2017-05-09T12:20:23.663Z,57.87
2017-05-09T12:21:25.034Z,58.15
2017-05-09T12:22:26.436Z,58.06
2017-05-09T12:23:27.807Z,57.39
2017-05-09T12:24:29.185Z,57.29
2017-05-09T12:25:30.562Z,57.58
2017-05-09T12:26:32.614Z,57.39
2017-05-09T12:27:34.969Z,57.10
2017-05-09T12:28:36.331Z,57.48
2017-05-09T12:29:37.693Z,57.23
2017-05-09T12:30:39.066Z,56.53
2017-05-09T12:31:40.432Z,56.27
2017-05-09T12:32:42.469Z,56.09
2017-05-09T12:33:43.837Z,56.46
2017-05-09T12:34:45.199Z,56.18
2017-05-09T12:35:46.573Z,56.09
2017-05-09T12:36:47.939Z,55.80
2017-05-09T12:37:49.309Z,55.80
2017-05-09T12:38:50.671Z,55.70
2017-05-09T12:39:52.040Z,55.51
2017-05-09T12:40:53.396Z,55.90
2017-05-09T12:41:54.762Z,54.72
2017-05-09T12:42:56.137Z,54.37
2017-05-09T12:43:57.496Z,54.85
2017-05-09T12:44:58.864Z,54.72
2017-05-09T12:46:00.225Z,55.39
2017-05-09T12:47:01.590Z,55.61
2017-05-09T12:48:02.960Z,54.85
2017-05-09T12:49:04.334Z,54.47
2017-05-09T12:50:05.699Z,53.23
2017-05-09T12:51:07.074Z,53.04
2017-05-09T12:52:08.447Z,52.56
2017-05-09T12:53:09.816Z,53.13
2017-05-09T12:54:11.183Z,52.78
2017-05-09T12:55:12.618Z,52.40
2017-05-09T12:56:13.994Z,52.01
2017-05-09T12:57:15.365Z,51.92
2017-05-09T12:58:16.725Z,51.51
2017-05-09T12:59:18.094Z,51.61
2017-05-09T13:00:19.464Z,51.64
2017-05-09T13:01:20.826Z,51.73
2017-05-09T13:02:22.234Z,52.01
2017-05-09T13:03:23.614Z,51.54
2017-05-09T13:04:24.979Z,51.73
2017-05-09T13:05:26.364Z,51.42
2017-05-09T13:06:27.726Z,51.70
2017-05-09T13:07:29.113Z,51.54
2017-05-09T13:08:30.475Z,51.06
2017-05-09T13:09:31.847Z,50.97
2017-05-09T13:10:33.221Z,51.25